createdAt,value
2023-02-11T00:01:18.349Z,97994.38
2023-02-11T00:03:47.901Z,97987.09
2023-02-11T00:06:16.010Z,97995.34
2023-02-11T00:08:44.127Z,97996.56
2023-02-11T00:11:15.561Z,97995.28
2023-02-11T00:13:44.106Z,97991.41
2023-02-11T00:16:14.964Z,97993.72
2023-02-11T00:18:43.064Z,97994.69
2023-02-11T00:21:14.899Z,97994.69
2023-02-11T00:23:43.626Z,97994.69
2023-02-11T00:26:15.150Z,97976.28
2023-02-11T00:28:43.482Z,97975.97
2023-02-11T00:31:11.582Z,97987.59
2023-02-11T00:33:39.653Z,97995.34
2023-02-11T00:36:09.698Z,97992.25
2023-02-11T00:38:39.096Z,97984.19
2023-02-11T00:41:07.183Z,97975.63
2023-02-11T00:43:36.453Z,97980.31
2023-02-11T00:46:04.682Z,97978.69
2023-02-11T00:48:32.934Z,97977.88
2023-02-11T00:51:00.983Z,97974.34
2023-02-11T00:53:30.526Z,97967.25
2023-02-11T00:56:01.077Z,97972.75
2023-02-11T00:58:29.590Z,97974.50
2023-02-11T01:00:58.543Z,97970.00
2023-02-11T01:03:26.604Z,97972.09
2023-02-11T01:05:54.722Z,97972.09
2023-02-11T01:08:23.152Z,97967.41
2023-02-11T01:10:56.693Z,97965.00
2023-02-11T01:13:26.729Z,97969.81
2023-02-11T01:15:55.333Z,97962.56
2023-02-11T01:18:23.359Z,97954.84
2023-02-11T01:20:53.100Z,97961.13
2023-02-11T01:23:21.121Z,97967.56
2023-02-11T01:25:49.465Z,97963.19
2023-02-11T01:28:18.937Z,97954.66
2023-02-11T01:30:48.413Z,97950.28
2023-02-11T01:33:16.807Z,97954.97
2023-02-11T01:35:45.566Z,97956.59
2023-02-11T01:38:17.589Z,97954.00
2023-02-11T01:40:49.210Z,97954.00
2023-02-11T01:43:17.201Z,97950.63
2023-02-11T01:46:03.878Z,97949.47
2023-02-11T01:48:35.574Z,97937.72
2023-02-11T01:51:08.109Z,97942.72
2023-02-11T01:53:55.374Z,97941.72
2023-02-11T01:56:43.381Z,97937.84
2023-02-11T01:59:16.354Z,97948.16
2023-02-11T02:01:49.581Z,97934.00
2023-02-11T02:04:20.427Z,97937.03
2023-02-11T02:06:54.521Z,97931.53
2023-02-11T02:09:26.805Z,97934.59
2023-02-11T02:11:55.075Z,97924.91
2023-02-11T02:14:23.402Z,97926.69
2023-02-11T02:16:54.011Z,97920.06
2023-02-11T02:19:47.709Z,97915.88
2023-02-11T02:22:56.745Z,97910.03
2023-02-11T02:25:49.971Z,97924.53
2023-02-11T02:28:48.106Z,97920.66
2023-02-11T02:31:51.232Z,97909.69
2023-02-11T02:34:28.492Z,97912.91
2023-02-11T02:37:04.286Z,97905.53
2023-02-11T02:39:37.084Z,97904.75
2023-02-11T02:42:06.045Z,97904.91
2023-02-11T02:44:34.936Z,97900.41
2023-02-11T02:47:02.951Z,97906.69
2023-02-11T02:49:32.461Z,97902.16
2023-02-11T02:52:19.561Z,97910.34
2023-02-11T02:55:21.605Z,97914.41
2023-02-11T02:58:04.000Z,97902.66
2023-02-11T03:00:37.523Z,97899.44
2023-02-11T03:03:18.536Z,97903.63
2023-02-11T03:05:56.140Z,97893.81
2023-02-11T03:08:30.155Z,97896.53
2023-02-11T03:11:00.299Z,97901.06
2023-02-11T03:13:33.813Z,97893.31
2023-02-11T03:16:08.410Z,97891.38
2023-02-11T03:18:40.842Z,97877.84
2023-02-11T03:21:11.407Z,97889.13
2023-02-11T03:23:43.483Z,97884.63
2023-02-11T03:26:19.698Z,97888.50
2023-02-11T03:28:55.276Z,97894.63
2023-02-11T03:31:31.976Z,97889.81
2023-02-11T03:34:05.259Z,97887.88
2023-02-11T03:36:41.309Z,97881.09
2023-02-11T03:39:12.267Z,97884.50
2023-02-11T03:41:41.826Z,97872.72
2023-02-11T03:44:11.777Z,97873.06
2023-02-11T03:46:43.207Z,97877.72
2023-02-11T03:49:13.523Z,97872.09
2023-02-11T03:51:43.221Z,97869.19
2023-02-11T03:54:16.046Z,97868.72
2023-02-11T03:56:50.406Z,97868.03
2023-02-11T03:59:18.448Z,97868.84
2023-02-11T04:01:46.425Z,97861.13
2023-02-11T04:04:14.903Z,97860.31
2023-02-11T04:06:44.546Z,97865.31
2023-02-11T04:09:12.617Z,97866.59
2023-02-11T04:11:40.588Z,97874.34
2023-02-11T04:14:08.546Z,97866.94
2023-02-11T04:16:36.569Z,97871.28
2023-02-11T04:19:04.672Z,97871.13
2023-02-11T04:21:32.749Z,97868.22
2023-02-11T04:24:02.139Z,97865.94
2023-02-11T04:26:30.103Z,97869.81
2023-02-11T04:28:58.124Z,97874.00
2023-02-11T04:31:26.190Z,97868.53
2023-02-11T04:33:54.334Z,97872.72
2023-02-11T04:36:22.282Z,97879.47
2023-02-11T04:38:50.348Z,97878.13
2023-02-11T04:41:19.812Z,97863.75
2023-02-11T04:43:47.754Z,97881.00
2023-02-11T04:46:15.764Z,97876.13
2023-02-11T04:48:43.800Z,97878.66
2023-02-11T04:51:11.800Z,97872.97
2023-02-11T04:53:39.914Z,97878.91
2023-02-11T04:56:08.266Z,97884.03
2023-02-11T04:58:37.706Z,97878.53
2023-02-11T05:01:09.176Z,97873.66
2023-02-11T05:03:37.602Z,97870.44
2023-02-11T05:06:06.508Z,97878.81
2023-02-11T05:08:34.642Z,97870.13
2023-02-11T05:11:03.153Z,97859.81
2023-02-11T05:13:31.628Z,97861.75
2023-02-11T05:16:01.213Z,97854.69
2023-02-11T05:18:29.296Z,97850.03
2023-02-11T05:20:57.647Z,97850.63
2023-02-11T05:23:25.628Z,97840.16
2023-02-11T05:25:53.601Z,97843.69
2023-02-11T05:28:21.613Z,97845.44
2023-02-11T05:30:50.076Z,97840.94
2023-02-11T05:33:19.480Z,97843.69
2023-02-11T05:35:47.455Z,97835.31
2023-02-11T05:38:15.415Z,97843.78
2023-02-11T05:40:43.425Z,97841.97
2023-02-11T05:43:11.410Z,97838.75
2023-02-11T05:45:39.408Z,97841.00
2023-02-11T05:48:07.398Z,97826.81
2023-02-11T05:50:36.783Z,97833.22
2023-02-11T05:53:05.776Z,97839.03
2023-02-11T05:55:34.108Z,97833.22
2023-02-11T05:58:02.232Z,97827.88
2023-02-11T06:00:30.219Z,97827.00
2023-02-11T06:02:58.246Z,97826.34
2023-02-11T06:05:26.381Z,97821.22
2023-02-11T06:07:55.792Z,97820.41
2023-02-11T06:10:23.831Z,97818.28
2023-02-11T06:12:51.856Z,97815.41
2023-02-11T06:15:19.983Z,97830.47
2023-02-11T06:17:48.037Z,97830.19
2023-02-11T06:20:16.174Z,97819.84
2023-02-11T06:22:44.205Z,97813.53
2023-02-11T06:25:13.746Z,97814.88
2023-02-11T06:27:41.752Z,97818.19
2023-02-11T06:30:11.056Z,97802.41
2023-02-11T06:32:44.670Z,97810.94
2023-02-11T06:35:13.117Z,97808.88
2023-02-11T06:37:41.447Z,97807.56
2023-02-11T06:40:09.776Z,97815.94
2023-02-11T06:42:39.675Z,97808.22
2023-02-11T06:45:09.519Z,97808.88
2023-02-11T06:47:37.746Z,97812.09
2023-02-11T06:50:06.250Z,97812.44
2023-02-11T06:52:34.452Z,97811.06
2023-02-11T06:55:02.629Z,97816.78
2023-02-11T06:57:32.116Z,97819.63
2023-02-11T07:00:01.561Z,97824.22
2023-02-11T07:02:29.551Z,97830.91
2023-02-11T07:04:57.533Z,97831.91
2023-02-11T07:07:25.539Z,97842.25
2023-02-11T07:09:53.623Z,97840.19
2023-02-11T07:12:21.575Z,97833.13
2023-02-11T07:14:49.540Z,97838.75
2023-02-11T07:17:20.110Z,97840.56
2023-02-11T07:19:48.137Z,97845.09
2023-02-11T07:22:16.300Z,97851.06
2023-02-11T07:24:44.353Z,97853.97
2023-02-11T07:27:12.326Z,97846.78
2023-02-11T07:29:40.283Z,97848.28
2023-02-11T07:32:08.375Z,97849.28
2023-02-11T07:34:38.087Z,97850.09
2023-02-11T07:37:06.379Z,97866.66
2023-02-11T07:39:34.402Z,97868.63
2023-02-11T07:42:02.433Z,97864.13
2023-02-11T07:44:30.516Z,97862.25
2023-02-11T07:46:58.503Z,97865.69
2023-02-11T07:49:26.709Z,97869.75
2023-02-11T07:51:56.235Z,97878.81
2023-02-11T07:54:24.245Z,97883.84
2023-02-11T07:56:52.234Z,97876.94
2023-02-11T07:59:22.867Z,97874.69
2023-02-11T08:01:51.581Z,97882.38
2023-02-11T08:04:19.684Z,97885.44
2023-02-11T08:06:47.858Z,97881.06
2023-02-11T08:09:18.024Z,97891.09
2023-02-11T08:11:53.166Z,97878.50
2023-02-11T08:14:21.671Z,97881.25
2023-02-11T08:16:49.775Z,97877.84
2023-02-11T08:19:18.449Z,97882.06
2023-02-11T08:21:47.120Z,97883.00
2023-02-11T08:24:15.195Z,97884.97
2023-02-11T08:26:44.894Z,97884.00
2023-02-11T08:29:15.104Z,97877.22
2023-02-11T08:31:45.837Z,97879.47
2023-02-11T08:34:18.325Z,97878.03
2023-02-11T08:36:47.739Z,97868.34
2023-02-11T08:39:20.290Z,97872.22
2023-02-11T08:41:51.035Z,97870.81
2023-02-11T08:44:19.718Z,97858.53
2023-02-11T08:46:48.587Z,97858.88
2023-02-11T08:49:17.007Z,97858.53
2023-02-11T08:51:45.982Z,97864.34
2023-02-11T08:54:14.541Z,97860.16
2023-02-11T08:56:42.740Z,97863.69
2023-02-11T08:59:14.641Z,97860.28
2023-02-11T09:01:44.272Z,97853.44
2023-02-11T09:04:12.634Z,97858.94
2023-02-11T09:06:40.723Z,97850.69
2023-02-11T09:09:13.673Z,97851.13
2023-02-11T09:11:42.532Z,97848.19
2023-02-11T09:14:19.492Z,97843.22
2023-02-11T09:16:47.740Z,97843.59
2023-02-11T09:19:15.783Z,97849.09
2023-02-11T09:21:43.846Z,97852.97
2023-02-11T09:24:12.639Z,97847.09
2023-02-11T09:26:44.160Z,97841.03
2023-02-11T09:29:13.764Z,97842.88
2023-02-11T09:31:41.964Z,97837.44
2023-02-11T09:34:10.174Z,97840.88
2023-02-11T09:36:40.897Z,97830.09
2023-02-11T09:39:12.704Z,97837.28
2023-02-11T09:41:50.570Z,97841.78
2023-02-11T09:44:24.269Z,97837.97
2023-02-11T09:46:58.415Z,97842.41
2023-02-11T09:49:35.042Z,97833.19
2023-02-11T09:52:07.746Z,97844.38
2023-02-11T09:54:45.929Z,97846.63
2023-02-11T09:57:27.708Z,97861.22
2023-02-11T09:59:58.782Z,97861.50
2023-02-11T10:02:38.056Z,97851.19
2023-02-11T10:05:19.133Z,97849.94
2023-02-11T10:07:52.791Z,97853.03
2023-02-11T10:10:41.318Z,97848.91
2023-02-11T10:13:34.720Z,97855.56
2023-02-11T10:16:12.830Z,97857.97
2023-02-11T10:18:54.083Z,97854.16
2023-02-11T10:21:32.362Z,97856.13
2023-02-11T10:24:04.580Z,97859.69
2023-02-11T10:26:34.493Z,97848.88
2023-02-11T10:29:12.484Z,97855.94
2023-02-11T10:31:45.701Z,97856.13
2023-02-11T10:34:14.988Z,97855.94
2023-02-11T10:36:45.633Z,97850.22
2023-02-11T10:39:15.700Z,97858.59
2023-02-11T10:41:46.468Z,97856.34
2023-02-11T10:44:24.869Z,97869.31
2023-02-11T10:46:56.342Z,97863.19
2023-02-11T10:49:42.262Z,97860.44
2023-02-11T10:52:21.497Z,97861.16
2023-02-11T10:55:04.316Z,97851.97
2023-02-11T10:57:36.239Z,97851.78
2023-02-11T11:00:20.558Z,97847.00
2023-02-11T11:02:57.041Z,97834.94
2023-02-11T11:05:32.423Z,97836.00
2023-02-11T11:08:03.231Z,97833.44
2023-02-11T11:10:37.551Z,97827.31
2023-02-11T11:13:05.628Z,97829.22
2023-02-11T11:15:33.667Z,97821.91
2023-02-11T11:18:22.632Z,97815.78
2023-02-11T11:21:00.866Z,97816.31
2023-02-11T11:23:31.012Z,97811.88
2023-02-11T11:26:05.631Z,97810.50
2023-02-11T11:28:39.833Z,97806.72
2023-02-11T11:31:15.116Z,97807.13
2023-02-11T11:33:45.628Z,97800.72
2023-02-11T11:36:16.579Z,97793.75
2023-02-11T11:38:50.298Z,97788.81
2023-02-11T11:41:25.799Z,97788.47
2023-02-11T11:43:59.239Z,97783.50
2023-02-11T11:46:30.662Z,97777.31
2023-02-11T11:49:08.592Z,97763.50
2023-02-11T11:51:39.993Z,97757.94
2023-02-11T11:54:13.837Z,97752.78
2023-02-11T11:56:59.433Z,97752.66
2023-02-11T11:59:28.350Z,97743.47
2023-02-11T12:02:12.720Z,97730.50
2023-02-11T12:04:58.004Z,97742.22
2023-02-11T12:07:42.299Z,97744.03
2023-02-11T12:10:35.289Z,97723.81
2023-02-11T12:13:14.985Z,97729.03
2023-02-11T12:15:55.721Z,97727.81
2023-02-11T12:18:38.790Z,97719.78
2023-02-11T12:21:25.069Z,97714.16
2023-02-11T12:24:11.488Z,97704.91
2023-02-11T12:26:46.860Z,97706.50
2023-02-11T12:29:28.146Z,97704.53
2023-02-11T12:32:08.041Z,97702.09
2023-02-11T12:35:02.839Z,97701.69
2023-02-11T12:37:47.516Z,97693.25
2023-02-11T12:40:22.240Z,97698.44
2023-02-11T12:43:15.599Z,97685.75
2023-02-11T12:45:54.370Z,97671.88
2023-02-11T12:48:59.484Z,97668.41
2023-02-11T12:51:41.679Z,97666.34
2023-02-11T12:54:20.774Z,97668.50
2023-02-11T12:56:55.384Z,97659.19
2023-02-11T12:59:39.654Z,97659.94
2023-02-11T13:02:17.932Z,97653.06
2023-02-11T13:04:50.892Z,97646.19
2023-02-11T13:07:27.208Z,97649.53
2023-02-11T13:10:02.302Z,97651.28
2023-02-11T13:12:50.958Z,97645.63
2023-02-11T13:15:19.313Z,97639.81
2023-02-11T13:17:55.982Z,97633.38
2023-02-11T13:20:34.063Z,97628.31
2023-02-11T13:23:12.793Z,97622.44
2023-02-11T13:25:49.163Z,97621.56
2023-02-11T13:28:29.383Z,97621.72
2023-02-11T13:31:02.906Z,97624.81
2023-02-11T13:33:36.129Z,97621.53
2023-02-11T13:36:26.061Z,97618.72
2023-02-11T13:38:58.397Z,97616.91
2023-02-11T13:41:32.002Z,97603.41
2023-02-11T13:44:02.998Z,97602.97
2023-02-11T13:46:50.552Z,97606.16
2023-02-11T13:49:24.715Z,97600.28
2023-02-11T13:51:54.382Z,97592.78
2023-02-11T13:54:28.254Z,97603.97
2023-02-11T13:57:28.106Z,97594.66
2023-02-11T13:59:57.936Z,97593.66
2023-02-11T14:02:47.642Z,97596.97
2023-02-11T14:05:45.568Z,97591.88
2023-02-11T14:08:39.055Z,97590.88
2023-02-11T14:11:11.056Z,97585.84
2023-02-11T14:14:06.305Z,97593.03
2023-02-11T14:16:38.440Z,97584.75
2023-02-11T14:19:07.358Z,97581.69
2023-02-11T14:21:39.137Z,97582.28
2023-02-11T14:24:48.122Z,97577.41
2023-02-11T14:27:24.744Z,97577.78
2023-02-11T14:30:11.818Z,97578.78
2023-02-11T14:32:52.405Z,97582.56
2023-02-11T14:35:29.029Z,97582.91
2023-02-11T14:38:05.041Z,97583.28
2023-02-11T14:40:36.643Z,97577.56
2023-02-11T14:43:13.421Z,97577.13
2023-02-11T14:45:46.611Z,97574.63
2023-02-11T14:48:17.897Z,97577.38
2023-02-11T14:50:50.068Z,97576.91
2023-02-11T14:53:20.844Z,97574.97
2023-02-11T14:55:53.634Z,97582.59
2023-02-11T14:58:23.250Z,97575.78
2023-02-11T15:00:59.255Z,97577.69
2023-02-11T15:03:29.962Z,97582.78
2023-02-11T15:06:00.555Z,97592.13
2023-02-11T15:08:30.147Z,97594.97
2023-02-11T15:10:59.057Z,97588.38
2023-02-11T15:13:31.133Z,97588.81
2023-02-11T15:16:09.416Z,97589.38
2023-02-11T15:18:42.119Z,97578.94
2023-02-11T15:21:11.177Z,97584.97
2023-02-11T15:23:40.805Z,97583.00
2023-02-11T15:26:14.978Z,97581.50
2023-02-11T15:28:52.129Z,97584.75
2023-02-11T15:31:24.476Z,97586.44
2023-02-11T15:33:53.643Z,97582.09
2023-02-11T15:36:28.842Z,97580.56
2023-02-11T15:39:31.850Z,97578.47
2023-02-11T15:42:26.923Z,97582.31
2023-02-11T15:45:13.084Z,97585.25
2023-02-11T15:47:48.416Z,97579.28
2023-02-11T15:50:24.534Z,97588.59
2023-02-11T15:52:53.630Z,97592.66
2023-02-11T15:55:22.200Z,97596.13
2023-02-11T15:57:55.049Z,97599.66
2023-02-11T16:00:26.022Z,97603.78
2023-02-11T16:02:55.688Z,97605.22
2023-02-11T16:05:29.069Z,97605.72
2023-02-11T16:07:57.597Z,97596.72
2023-02-11T16:10:29.102Z,97610.78
2023-02-11T16:13:04.077Z,97612.22
2023-02-11T16:15:55.196Z,97609.03
2023-02-11T16:18:38.867Z,97617.72
2023-02-11T16:21:14.434Z,97613.56
2023-02-11T16:23:43.463Z,97614.03
2023-02-11T16:26:21.878Z,97620.53
2023-02-11T16:28:50.271Z,97623.63
2023-02-11T16:31:18.798Z,97623.25
2023-02-11T16:33:48.246Z,97625.91
2023-02-11T16:36:18.298Z,97633.19
2023-02-11T16:38:46.339Z,97634.03
2023-02-11T16:41:14.833Z,97634.47
2023-02-11T16:43:42.908Z,97633.47
2023-02-11T16:46:16.026Z,97632.69
2023-02-11T16:48:44.430Z,97639.91
2023-02-11T16:51:14.230Z,97646.34
2023-02-11T16:53:42.352Z,97636.75
2023-02-11T16:56:15.855Z,97645.56
2023-02-11T16:58:43.980Z,97647.59
2023-02-11T17:01:13.921Z,97646.78
2023-02-11T17:03:43.852Z,97649.59
2023-02-11T17:06:14.240Z,97643.22
2023-02-11T17:08:42.639Z,97645.22
2023-02-11T17:11:10.804Z,97654.47
2023-02-11T17:13:39.620Z,97652.47
2023-02-11T17:16:13.375Z,97651.31
2023-02-11T17:18:41.426Z,97654.38
2023-02-11T17:21:09.840Z,97659.41
2023-02-11T17:23:39.286Z,97659.22
2023-02-11T17:26:08.142Z,97661.84
2023-02-11T17:28:36.281Z,97667.44
2023-02-11T17:31:09.555Z,97669.25
2023-02-11T17:33:38.943Z,97670.66
2023-02-11T17:36:08.190Z,97677.09
2023-02-11T17:38:37.336Z,97678.69
2023-02-11T17:41:07.087Z,97676.28
2023-02-11T17:43:35.167Z,97678.09
2023-02-11T17:46:06.457Z,97677.91
2023-02-11T17:48:34.531Z,97677.50
2023-02-11T17:51:02.487Z,97680.09
2023-02-11T17:53:30.835Z,97676.09
2023-02-11T17:55:58.845Z,97677.91
2023-02-11T17:58:28.185Z,97683.09
2023-02-11T18:00:59.520Z,97691.31
2023-02-11T18:03:27.697Z,97703.94
2023-02-11T18:06:00.178Z,97703.31
2023-02-11T18:08:28.202Z,97707.53
2023-02-11T18:10:56.253Z,97711.13
2023-02-11T18:13:24.287Z,97712.53
2023-02-11T18:15:53.928Z,97713.53
2023-02-11T18:18:22.044Z,97712.75
2023-02-11T18:20:57.669Z,97715.53
2023-02-11T18:23:25.819Z,97714.72
2023-02-11T18:25:54.011Z,97724.91
2023-02-11T18:28:22.349Z,97727.09
2023-02-11T18:30:50.424Z,97736.28
2023-02-11T18:33:19.802Z,97726.25
2023-02-11T18:35:49.278Z,97727.84
2023-02-11T18:38:18.673Z,97734.44
2023-02-11T18:40:47.609Z,97728.44
2023-02-11T18:43:15.690Z,97742.25
2023-02-11T18:45:44.463Z,97737.47
2023-02-11T18:48:12.868Z,97752.69
2023-02-11T18:50:44.570Z,97759.28
2023-02-11T18:53:14.124Z,97759.03
2023-02-11T18:55:43.066Z,97761.19
2023-02-11T18:58:11.149Z,97766.53
2023-02-11T19:00:42.121Z,97765.69
2023-02-11T19:03:10.112Z,97771.09
2023-02-11T19:05:43.406Z,97769.69
2023-02-11T19:08:11.928Z,97773.03
2023-02-11T19:10:42.084Z,97782.06
2023-02-11T19:13:10.247Z,97787.22
2023-02-11T19:15:42.466Z,97777.56
2023-02-11T19:18:10.894Z,97771.13
2023-02-11T19:20:40.609Z,97780.72
2023-02-11T19:23:10.455Z,97787.09
2023-02-11T19:25:38.885Z,97784.69
2023-02-11T19:28:07.129Z,97792.28
2023-02-11T19:30:37.107Z,97791.91
2023-02-11T19:33:05.238Z,97796.50
2023-02-11T19:35:35.687Z,97796.25
2023-02-11T19:38:04.454Z,97795.81
2023-02-11T19:40:34.256Z,97793.78
2023-02-11T19:43:02.207Z,97805.03
2023-02-11T19:45:30.315Z,97804.66
2023-02-11T19:47:58.809Z,97798.66
2023-02-11T19:50:27.335Z,97800.78
2023-02-11T19:52:55.532Z,97793.25
2023-02-11T19:55:23.585Z,97792.72
2023-02-11T19:57:52.961Z,97787.41
2023-02-11T20:00:21.744Z,97784.97
2023-02-11T20:02:49.869Z,97792.88
2023-02-11T20:05:18.092Z,97793.22
2023-02-11T20:07:46.227Z,97798.06
2023-02-11T20:10:14.490Z,97797.31
2023-02-11T20:12:42.594Z,97798.97
2023-02-11T20:15:12.333Z,97798.66
2023-02-11T20:17:40.292Z,97794.94
2023-02-11T20:20:09.254Z,97793.56
2023-02-11T20:22:37.291Z,97789.00
2023-02-11T20:25:05.659Z,97787.63
2023-02-11T20:27:33.668Z,97786.84
2023-02-11T20:30:01.829Z,97794.06
2023-02-11T20:32:37.870Z,97788.88
2023-02-11T20:35:07.349Z,97783.69
2023-02-11T20:37:35.396Z,97784.06
2023-02-11T20:40:03.416Z,97790.38
2023-02-11T20:42:31.464Z,97780.72
2023-02-11T20:44:59.436Z,97783.31
2023-02-11T20:47:27.388Z,97777.50
2023-02-11T20:49:56.963Z,97783.06
2023-02-11T20:52:24.937Z,97779.25
2023-02-11T20:54:52.953Z,97782.22
2023-02-11T20:57:20.912Z,97780.00
2023-02-11T20:59:48.946Z,97781.59
2023-02-11T21:02:16.926Z,97775.22
2023-02-11T21:04:44.874Z,97779.63
2023-02-11T21:07:14.374Z,97788.53
2023-02-11T21:09:42.398Z,97784.84
2023-02-11T21:12:10.438Z,97779.66
2023-02-11T21:14:38.454Z,97782.16
2023-02-11T21:17:06.742Z,97791.06
2023-02-11T21:19:34.771Z,97790.97
2023-02-11T21:22:02.884Z,97797.88
2023-02-11T21:24:32.435Z,97798.00
2023-02-11T21:27:00.725Z,97791.28
2023-02-11T21:29:28.798Z,97801.31
2023-02-11T21:31:57.045Z,97796.41
2023-02-11T21:34:25.296Z,97799.13
2023-02-11T21:36:53.278Z,97808.97
2023-02-11T21:39:21.454Z,97814.56
2023-02-11T21:41:51.648Z,97813.41
2023-02-11T21:44:19.990Z,97810.44
2023-02-11T21:46:48.072Z,97813.97
2023-02-11T21:49:16.171Z,97810.03
2023-02-11T21:51:44.214Z,97808.31
2023-02-11T21:54:12.504Z,97810.53
2023-02-11T21:56:40.714Z,97814.75
2023-02-11T21:59:13.711Z,97813.75
2023-02-11T22:01:41.930Z,97824.41
2023-02-11T22:04:11.034Z,97823.34
2023-02-11T22:06:39.840Z,97817.47
2023-02-11T22:09:10.877Z,97811.66
2023-02-11T22:11:39.358Z,97819.78
2023-02-11T22:14:09.762Z,97810.59
2023-02-11T22:16:37.987Z,97806.56
2023-02-11T22:19:07.525Z,97810.75
2023-02-11T22:21:35.610Z,97811.38
2023-02-11T22:24:03.590Z,97804.25
2023-02-11T22:26:31.639Z,97798.72
2023-02-11T22:28:59.660Z,97797.75
2023-02-11T22:31:31.023Z,97802.56
2023-02-11T22:33:59.851Z,97803.56
2023-02-11T22:36:29.630Z,97804.53
2023-02-11T22:39:00.775Z,97815.50
2023-02-11T22:41:28.910Z,97807.94
2023-02-11T22:43:56.940Z,97796.41
2023-02-11T22:46:25.156Z,97804.81
2023-02-11T22:48:55.138Z,97801.25
2023-02-11T22:51:25.162Z,97799.44
2023-02-11T22:53:54.600Z,97793.13
2023-02-11T22:56:22.806Z,97797.31
2023-02-11T22:58:53.311Z,97797.31
2023-02-11T23:01:21.680Z,97790.97
2023-02-11T23:03:49.889Z,97790.63
2023-02-11T23:06:19.684Z,97785.53
2023-02-11T23:08:47.962Z,97794.22
2023-02-11T23:11:19.365Z,97795.72
2023-02-11T23:13:49.063Z,97786.25
2023-02-11T23:16:19.132Z,97788.94
2023-02-11T23:18:48.810Z,97790.78
2023-02-11T23:21:21.304Z,97801.72
2023-02-11T23:23:49.840Z,97805.13
2023-02-11T23:26:19.980Z,97799.50
2023-02-11T23:28:48.070Z,97793.59
2023-02-11T23:31:18.479Z,97800.91
2023-02-11T23:33:47.304Z,97796.44
2023-02-11T23:36:16.126Z,97797.59
2023-02-11T23:38:45.972Z,97797.97
2023-02-11T23:41:14.750Z,97788.22
2023-02-11T23:43:43.103Z,97788.84
2023-02-11T23:46:11.833Z,97794.13
2023-02-11T23:48:40.629Z,97788.59
2023-02-11T23:51:09.695Z,97788.13
2023-02-11T23:53:38.003Z,97782.06
2023-02-11T23:56:11.684Z,97789.47
2023-02-11T23:58:39.761Z,97786.59
